KAXV/AXV METAR and TAF weather

Enter ICAO airport designator
Station Type Date Time Source
KAXV METAR 2020/09/24 11:15 UTC NOAA

KAXV 241115Z AUTO 00000KT 10SM CLR 12/11 A3002 RMK AO2


Station Type Date Time Source
KAXV Decoded METAR 2020/09/24 11:15 UTC NOAA

Station name not available
Sep 24, 2020 - 07:15 AM EDT / 2020.09.24 1115 UTC
Wind: Calm:0
Visibility: 10 mile(s):0
Sky conditions: clear
Temperature: 53 F (12 C)
Dew Point: 51 F (11 C)
Relative Humidity: 93%
Pressure (altimeter): 30.02 in. Hg (1016 hPa)
ob: KAXV 241115Z AUTO 00000KT 10SM CLR 12/11 A3002 RMK AO2
cycle: 11

Station Type Date Time Source
KAXV TAF UTC NOAA

Error!

Example: see airport list